Time;durP1;ratioP1;P1;durP2;ratioP2;P2;SDS_P1;SDS_P2;PMS_P1;PMS_P2;Temp;Humidity;BMP_temperature;BMP_pressure;BME280_temperature;BME280_humidity;BME280_pressure;Samples;Min_cycle;Max_cycle;Signal;HPM_P1;HPM_P2
2022/07/29 00:01:29;;;;;;;4.87;2.03;;;;;;;10.78;100.00;101630.28;5007266;28;20442;-73
2022/07/29 00:03:55;;;;;;;2.20;1.80;;;;;;;10.76;100.00;101627.75;5008347;28;20026;-72
2022/07/29 00:06:20;;;;;;;6.87;1.97;;;;;;;10.74;100.00;101626.22;5023988;28;20034;-73
2022/07/29 00:08:46;;;;;;;2.60;1.75;;;;;;;10.74;100.00;101627.03;5015526;28;20021;-74
2022/07/29 00:11:11;;;;;;;4.87;2.30;;;;;;;10.71;100.00;101615.81;5008295;28;20100;-73
2022/07/29 00:13:37;;;;;;;4.53;1.97;;;;;;;10.67;100.00;101614.41;5008826;28;20041;-73
2022/07/29 00:16:03;;;;;;;4.57;2.10;;;;;;;10.66;100.00;101612.75;5008823;28;20037;-73
2022/07/29 00:18:28;;;;;;;6.03;2.10;;;;;;;10.65;100.00;101622.59;5007159;28;20454;-73
2022/07/29 00:20:54;;;;;;;4.97;2.23;;;;;;;10.63;100.00;101613.00;5008122;28;20042;-72
2022/07/29 00:23:19;;;;;;;4.65;2.83;;;;;;;10.65;100.00;101617.25;5023718;28;20523;-73
2022/07/29 00:25:44;;;;;;;3.23;1.90;;;;;;;10.61;100.00;101621.19;5015221;28;20372;-73
2022/07/29 00:28:10;;;;;;;4.40;1.60;;;;;;;10.57;100.00;101615.25;5006901;28;20128;-73
2022/07/29 00:30:35;;;;;;;3.20;1.87;;;;;;;10.68;100.00;101632.13;5007970;28;20025;-73
2022/07/29 00:33:01;;;;;;;7.40;1.73;;;;;;;10.64;100.00;101612.03;5008225;28;20044;-73
2022/07/29 00:35:44;;;;;;;3.00;2.03;;;;;;;10.62;100.00;101627.34;5007934;28;20184;-74
2022/07/29 00:38:11;;;;;;;3.50;1.92;;;;;;;10.65;100.00;101627.06;5023325;28;20034;-72
2022/07/29 00:40:37;;;;;;;1.77;1.33;;;;;;;10.64;100.00;101617.38;5021993;28;20053;-72
2022/07/29 00:43:02;;;;;;;2.83;2.17;;;;;;;10.61;100.00;101612.31;5008001;28;20084;-73
2022/07/29 00:45:29;;;;;;;4.83;2.37;;;;;;;10.63;100.00;101613.88;5007928;28;20060;-73
2022/07/29 00:47:55;;;;;;;4.65;1.88;;;;;;;10.65;100.00;101617.25;5007636;28;20034;-72
2022/07/29 00:50:20;;;;;;;5.40;1.80;;;;;;;10.61;100.00;101612.31;5007239;28;20456;-71
2022/07/29 00:52:46;;;;;;;3.27;1.60;;;;;;;10.61;100.00;101613.16;5007928;28;20300;-71
2022/07/29 00:55:14;;;;;;;5.68;2.28;;;;;;;10.51;100.00;101610.50;5006059;28;20555;-73
2022/07/29 00:57:41;;;;;;;4.18;1.65;;;;;;;10.52;100.00;101611.34;5007361;28;20029;-73
2022/07/29 01:00:10;;;;;;;3.53;1.73;;;;;;;10.49;100.00;101609.78;5003237;28;20037;-73
2022/07/29 01:02:36;;;;;;;5.60;1.65;;;;;;;10.45;100.00;101608.38;5007849;28;20129;-73
2022/07/29 01:05:03;;;;;;;4.30;1.70;;;;;;;10.42;100.00;101600.66;5022745;28;20571;-73
2022/07/29 01:07:30;;;;;;;3.92;1.58;;;;;;;10.37;100.00;101602.06;5005910;28;20030;-72
2022/07/29 01:09:56;;;;;;;3.35;1.50;;;;;;;10.33;100.00;101605.00;5005962;28;20026;-73
2022/07/29 01:12:25;;;;;;;;;;;;;;;10.33;100.00;101601.50;5007796;28;20037;-72
2022/07/29 01:14:53;;;;;;;5.82;2.80;;;;;;;10.31;100.00;101603.47;5022646;28;19913;-72
2022/07/29 01:17:25;;;;;;;4.82;1.55;;;;;;;10.29;100.00;101606.25;5022561;28;20100;-73
2022/07/29 01:20:17;;;;;;;3.47;1.60;;;;;;;10.19;100.00;101597.38;5022132;28;20030;-72
2022/07/29 01:23:02;;;;;;;2.55;1.50;;;;;;;10.18;100.00;101594.84;5002712;28;20042;-73
2022/07/29 01:26:05;;;;;;;2.70;1.80;;;;;;;10.11;100.00;101598.09;5022093;28;20105;-72
2022/07/29 01:28:57;;;;;;;4.03;1.65;;;;;;;10.07;100.00;101602.00;5007303;28;20052;-73
2022/07/29 01:31:42;;;;;;;2.78;1.75;;;;;;;10.06;100.00;101599.47;5006821;28;20479;-72
2022/07/29 01:34:10;;;;;;;;;;;;;;;10.07;100.00;101607.34;5022951;28;20447;-72
2022/07/29 01:36:49;;;;;;;3.97;1.65;;;;;;;10.03;100.00;101594.41;5022299;28;20322;-73
2022/07/29 01:39:30;;;;;;;4.32;1.88;;;;;;;9.99;100.00;101598.34;5006734;28;20044;-73
2022/07/29 01:42:24;;;;;;;7.88;2.17;;;;;;;9.98;100.00;101602.84;5006716;28;20034;-73
2022/07/29 01:45:15;;;;;;;2.43;1.80;;;;;;;9.94;100.00;101612.94;5009891;28;20056;-72
2022/07/29 01:47:52;;;;;;;3.95;2.20;;;;;;;9.93;100.00;101605.91;5003681;28;20281;-72
2022/07/29 01:50:23;;;;;;;7.30;2.55;;;;;;;9.92;100.00;101600.72;5006262;28;20037;-72
2022/07/29 01:52:58;;;;;;;2.03;1.60;;;;;;;9.91;100.00;101596.38;5002646;28;20083;-73
2022/07/29 01:55:28;;;;;;;5.07;2.05;;;;;;;9.88;100.00;101596.63;5004390;28;20949;-73
2022/07/29 01:57:55;;;;;;;3.42;1.80;;;;;;;9.84;100.00;101589.91;5005722;28;20124;-73
2022/07/29 02:00:22;;;;;;;4.65;1.58;;;;;;;9.82;100.00;101591.84;5005384;28;20381;-73
2022/07/29 02:02:49;;;;;;;3.63;1.55;;;;;;;9.77;100.00;101589.59;5021148;28;20026;-73
2022/07/29 02:05:18;;;;;;;2.63;1.58;;;;;;;9.76;100.00;101584.38;5004522;28;20021;-72
2022/07/29 02:07:47;;;;;;;4.22;2.03;;;;;;;9.73;100.00;101585.50;5005514;28;20117;-72
2022/07/29 02:10:14;;;;;;;2.53;1.75;;;;;;;9.74;100.00;101584.53;5005243;28;20111;-72
2022/07/29 02:12:42;;;;;;;2.42;1.50;;;;;;;9.76;100.00;101592.38;5020701;28;20030;-72
2022/07/29 02:15:10;;;;;;;2.63;1.85;;;;;;;9.72;100.00;101592.66;5005855;28;20141;-72
2022/07/29 02:17:48;;;;;;;4.72;1.55;;;;;;;9.72;100.00;101587.34;4993425;28;20168;-73
2022/07/29 02:20:15;;;;;;;5.22;1.85;;;;;;;9.74;100.00;101592.53;5018026;28;20065;-73
2022/07/29 02:22:44;;;;;;;4.63;1.73;;;;;;;9.72;100.00;101584.66;5004208;28;20026;-72
2022/07/29 02:25:10;;;;;;;3.55;1.63;;;;;;;9.69;100.00;101581.41;4987494;28;20069;-73
2022/07/29 02:27:38;;;;;;;5.35;1.88;;;;;;;9.66;100.00;101574.53;5004025;28;20146;-71
2022/07/29 02:30:06;;;;;;;2.88;1.60;;;;;;;9.65;100.00;101574.69;5006348;28;20113;-73
2022/07/29 02:32:34;;;;;;;3.47;1.70;;;;;;;9.64;100.00;101576.50;5020735;28;20565;-72
2022/07/29 02:35:01;;;;;;;2.15;1.50;;;;;;;9.59;100.00;101562.72;5011293;28;20030;-73
2022/07/29 02:37:28;;;;;;;2.78;1.63;;;;;;;9.59;100.00;101565.41;5003973;28;20081;-73
2022/07/29 02:39:55;;;;;;;3.95;1.98;;;;;;;9.56;100.00;101555.00;5019783;28;20121;-73
2022/07/29 02:42:23;;;;;;;3.38;2.03;;;;;;;9.53;100.00;101557.97;5013283;28;20022;-73
2022/07/29 02:44:49;;;;;;;3.72;2.05;;;;;;;9.46;100.00;101549.66;5004174;28;20034;-72
2022/07/29 02:47:28;;;;;;;3.63;2.08;;;;;;;9.44;100.00;101542.78;5005374;28;20033;-73
2022/07/29 02:49:59;;;;;;;3.47;2.30;;;;;;;9.42;100.00;101537.56;5004664;28;20034;-73
2022/07/29 02:52:44;;;;;;;4.10;2.20;;;;;;;9.43;100.00;101539.25;4987180;28;20026;-73
2022/07/29 02:55:40;;;;;;;5.78;2.72;;;;;;;9.47;100.00;101550.50;5020197;28;20132;-73
2022/07/29 02:58:33;;;;;;;3.08;1.98;;;;;;;9.46;100.00;101547.00;5020143;28;20163;-73
2022/07/29 03:01:07;;;;;;;4.53;2.10;;;;;;;9.48;100.00;101557.50;5004579;28;20037;-73
2022/07/29 03:03:36;;;;;;;2.65;1.70;;;;;;;9.46;100.00;101557.66;4995175;28;20074;-73
2022/07/29 03:06:04;;;;;;;3.45;2.20;;;;;;;9.50;100.00;101560.88;5007674;28;20030;-73
2022/07/29 03:08:32;;;;;;;4.43;1.85;;;;;;;9.54;100.00;101561.47;5004466;28;20080;-73
2022/07/29 03:10:57;;;;;;;3.08;1.90;;;;;;;9.56;100.00;101565.69;5023593;28;20136;-73
2022/07/29 03:13:23;;;;;;;3.22;1.85;;;;;;;9.55;100.00;101557.81;5008911;28;20501;-74
2022/07/29 03:15:49;;;;;;;3.45;1.60;;;;;;;9.58;100.00;101558.41;5007699;28;20057;-73
2022/07/29 03:18:15;;;;;;;5.72;2.20;;;;;;;9.68;100.00;101564.59;5008880;28;20085;-73
2022/07/29 03:20:41;;;;;;;4.07;1.83;;;;;;;9.71;100.00;101566.13;5007115;28;20030;-74
2022/07/29 03:23:08;;;;;;;3.58;2.00;;;;;;;9.77;100.00;101575.44;4991055;28;20037;-74
2022/07/29 03:25:34;;;;;;;4.65;2.15;;;;;;;9.80;100.00;101567.13;5007203;28;20044;-73
2022/07/29 03:28:00;;;;;;;4.30;2.72;;;;;;;9.85;100.00;101575.56;5015174;28;20053;-73
2022/07/29 03:30:25;;;;;;;4.37;2.20;;;;;;;9.92;100.00;101566.03;5007591;28;20026;-73
2022/07/29 03:32:52;;;;;;;5.60;2.80;;;;;;;9.95;100.00;101565.78;5008604;28;20296;-74
2022/07/29 03:35:18;;;;;;;3.60;2.28;;;;;;;10.01;100.00;101567.88;5006982;28;20041;-73
2022/07/29 03:37:44;;;;;;;5.35;2.92;;;;;;;10.07;100.00;101567.31;5008438;28;20148;-73
2022/07/29 03:40:13;;;;;;;9.38;2.88;;;;;;;10.06;100.00;101554.13;5015911;28;20026;-73
2022/07/29 03:42:41;;;;;;;3.78;2.75;;;;;;;10.10;100.00;101553.69;5008271;28;20037;-73
2022/07/29 03:45:10;;;;;;;3.53;2.38;;;;;;;10.22;100.00;101565.06;5007132;28;20029;-73
2022/07/29 03:47:40;;;;;;;3.85;2.35;;;;;;;10.30;100.00;101569.72;5008120;28;20129;-73
2022/07/29 03:50:08;;;;;;;3.42;2.38;;;;;;;10.39;100.00;101568.91;5005085;28;20145;-74
2022/07/29 03:52:34;;;;;;;7.55;2.63;;;;;;;10.47;100.00;101571.72;5008375;28;20047;-74
2022/07/29 03:55:01;;;;;;;3.15;2.33;;;;;;;10.55;100.00;101574.50;5023417;28;20042;-74
2022/07/29 03:57:28;;;;;;;;;;;;;;;10.69;100.00;101575.06;5008506;28;20030;-74
2022/07/29 03:59:54;;;;;;;5.50;2.83;;;;;;;10.70;100.00;101577.59;5014585;28;19920;-74
2022/07/29 04:02:20;;;;;;;;;;;;;;;10.79;100.00;101575.88;4990825;28;20030;-74
2022/07/29 04:04:46;;;;;;;;;;;;;;;10.85;100.00;101579.81;5014521;28;20371;-73
2022/07/29 04:07:13;;;;;;;9.00;3.90;;;;;;;10.92;100.00;101578.25;5001944;28;19913;-74
2022/07/29 04:09:38;;;;;;;6.25;3.47;;;;;;;10.90;100.00;101578.38;5006262;28;20084;-74
2022/07/29 04:12:04;;;;;;;6.63;3.70;;;;;;;10.94;100.00;101574.44;5008016;28;20030;-74
2022/07/29 04:14:31;;;;;;;5.53;3.53;;;;;;;10.95;100.00;101573.44;5006829;28;20153;-74
2022/07/29 04:16:57;;;;;;;4.80;3.63;;;;;;;11.01;100.00;101574.72;5012484;28;20077;-74
2022/07/29 04:19:22;;;;;;;7.07;3.00;;;;;;;11.04;100.00;101579.75;5006262;28;20432;-74
2022/07/29 04:21:47;;;;;;;6.03;3.03;;;;;;;11.10;100.00;101581.84;5007588;28;20356;-74
2022/07/29 04:24:13;;;;;;;4.97;3.13;;;;;;;11.14;100.00;101580.59;5006336;28;20033;-74
2022/07/29 04:26:38;;;;;;;5.93;2.90;;;;;;;11.22;100.00;101571.00;5022549;28;20448;-74
2022/07/29 04:29:04;;;;;;;3.73;2.40;;;;;;;11.30;100.00;101577.28;5006069;28;20041;-74
2022/07/29 04:31:29;;;;;;;5.37;2.70;;;;;;;11.36;100.00;101576.69;5007138;28;20109;-74
2022/07/29 04:33:55;;;;;;;7.80;3.07;;;;;;;11.43;100.00;101565.41;5007485;28;20054;-74
2022/07/29 04:36:20;;;;;;;7.07;3.47;;;;;;;11.47;100.00;101572.13;5006018;28;20034;-74
2022/07/29 04:38:45;;;;;;;10.23;4.20;;;;;;;11.54;100.00;101575.88;5022751;28;20038;-74
2022/07/29 04:41:11;;;;;;;8.37;3.13;;;;;;;11.60;100.00;101578.81;5005610;28;20065;-74
2022/07/29 04:43:36;;;;;;;7.20;3.07;;;;;;;11.64;100.00;101578.53;5007390;28;20384;-74
2022/07/29 04:46:03;;;;;;;4.87;2.77;;;;;;;11.72;100.00;101584.81;5022298;28;20037;-74
2022/07/29 04:48:28;;;;;;;6.20;3.25;;;;;;;11.82;100.00;101582.94;5005932;28;20041;-74
2022/07/29 04:50:54;;;;;;;4.83;3.43;;;;;;;11.87;100.00;101571.81;4996545;28;20022;-74
2022/07/29 04:53:20;;;;;;;5.10;3.55;;;;;;;11.96;100.00;101570.91;5005798;28;20321;-74
2022/07/29 04:55:45;;;;;;;6.07;2.90;;;;;;;12.07;100.00;101569.00;5007274;28;20210;-74
2022/07/29 04:58:11;;;;;;;14.60;4.75;;;;;;;12.18;100.00;101566.94;5005757;28;20040;-74
2022/07/29 05:00:37;;;;;;;3.40;2.80;;;;;;;12.27;100.00;101561.63;5021181;28;20048;-74
2022/07/29 05:03:03;;;;;;;6.72;3.83;;;;;;;12.37;100.00;101559.75;5006936;28;20107;-74
2022/07/29 05:05:29;;;;;;;;;;;;;;;12.47;100.00;101565.84;5002638;28;20030;-74
2022/07/29 05:07:55;;;;;;;;;;;;;;;12.58;100.00;101562.91;5007273;28;19924;-74
2022/07/29 05:10:20;;;;;;;6.70;2.80;;;;;;;12.65;100.00;101560.47;5021626;28;19913;-74
2022/07/29 05:12:46;;;;;;;8.77;3.30;;;;;;;12.76;100.00;101562.03;4996646;28;20133;-74
2022/07/29 05:15:11;;;;;;;5.83;3.33;;;;;;;12.84;100.00;101548.69;5006671;28;20632;-74
2022/07/29 05:17:37;;;;;;;6.88;3.28;;;;;;;13.00;100.00;101545.28;5021796;28;20121;-74
2022/07/29 05:20:03;;;;;;;12.83;3.77;;;;;;;13.16;100.00;101541.81;5006191;28;20033;-74
2022/07/29 05:22:28;;;;;;;6.13;3.25;;;;;;;13.30;100.00;101547.47;5005589;28;20463;-74
2022/07/29 05:24:54;;;;;;;7.90;3.00;;;;;;;13.47;100.00;101531.44;5006374;28;20029;-74
2022/07/29 05:27:19;;;;;;;5.43;3.63;;;;;;;13.73;100.00;101542.09;5006296;28;20034;-74
2022/07/29 05:29:45;;;;;;;7.53;3.37;;;;;;;13.80;100.00;101524.31;5011345;28;20528;-74
2022/07/29 05:32:10;;;;;;;7.00;2.90;;;;;;;14.07;100.00;101527.72;5006955;28;20034;-74
2022/07/29 05:34:36;;;;;;;7.73;3.00;;;;;;;14.45;100.00;101522.72;5004998;28;20395;-74
2022/07/29 05:37:02;;;;;;;4.55;2.90;;;;;;;14.46;100.00;101501.03;5021474;28;20145;-74
2022/07/29 05:39:28;;;;;;;6.37;3.23;;;;;;;14.50;100.00;101486.25;5004869;28;20399;-74
2022/07/29 05:41:53;;;;;;;7.37;3.17;;;;;;;14.66;100.00;101471.97;5020218;28;20121;-74
2022/07/29 05:44:18;;;;;;;5.40;3.23;;;;;;;14.62;100.00;101461.75;5006439;28;20076;-74
2022/07/29 05:46:44;;;;;;;8.00;3.00;;;;;;;14.53;100.00;101455.50;5006035;28;20045;-74
2022/07/29 05:49:09;;;;;;;8.37;2.47;;;;;;;14.54;100.00;101454.56;5005370;28;20927;-74
2022/07/29 05:51:35;;;;;;;9.27;4.27;;;;;;;14.56;100.00;101449.81;5004693;28;20077;-74
2022/07/29 05:54:01;;;;;;;12.98;3.72;;;;;;;14.58;100.00;101453.16;5021650;28;20702;-74
2022/07/29 05:56:27;;;;;;;6.38;3.10;;;;;;;14.72;100.00;101449.78;5004738;28;20403;-74
2022/07/29 05:58:52;;;;;;;9.23;3.27;;;;;;;15.36;100.00;101468.53;5005987;28;20109;-74
2022/07/29 06:01:18;;;;;;;8.10;3.20;;;;;;;16.38;100.00;101448.59;5004985;28;20388;-74
2022/07/29 06:03:43;;;;;;;6.07;3.00;;;;;;;17.61;100.00;101383.13;5006084;28;20582;-75
2022/07/29 06:06:09;;;;;;;5.30;2.70;;;;;;;18.89;100.00;101286.44;5004577;28;20435;-74
2022/07/29 06:08:36;;;;;;;13.82;3.25;;;;;;;19.52;100.00;101083.00;5020810;28;20026;-74
2022/07/29 06:11:01;;;;;;;5.50;2.72;;;;;;;20.24;100.00;101015.94;5020502;28;20038;-75
2022/07/29 06:13:27;;;;;;;6.22;2.78;;;;;;;20.06;100.00;100964.38;5004523;28;20072;-75
2022/07/29 06:15:52;;;;;;;6.57;2.88;;;;;;;20.10;100.00;100937.69;5005620;28;20030;-75
2022/07/29 06:18:18;;;;;;;7.50;2.60;;;;;;;19.79;100.00;101012.50;5005678;28;20445;-75
2022/07/29 06:20:44;;;;;;;5.10;2.97;;;;;;;20.23;100.00;101036.00;5005224;28;20105;-75
2022/07/29 06:23:09;;;;;;;6.78;2.60;;;;;;;21.16;100.00;101052.53;5004291;28;20036;-75
2022/07/29 06:25:36;;;;;;;7.90;2.70;;;;;;;;;;5020899;28;20564;-75
2022/07/29 06:28:02;;;;;;;8.90;3.17;;;;;;;20.92;87.40;100679.75;5005624;28;20486;-75
2022/07/29 06:30:28;;;;;;;7.50;3.20;;;;;;;20.80;99.71;100999.88;5003884;28;20034;-75
2022/07/29 06:32:54;;;;;;;3.67;2.35;;;;;;;20.36;93.59;100834.41;5004173;28;20044;-75
2022/07/29 06:35:19;;;;;;;5.80;2.85;;;;;;;20.75;97.94;101016.81;5005317;28;20036;-76
2022/07/29 06:37:45;;;;;;;3.47;2.50;;;;;;;19.70;99.77;100905.47;5005472;28;20566;-75
2022/07/29 06:42:55;;;;;;;6.53;2.50;;;;;;;20.12;99.76;101044.81;5005485;28;20793;-75
2022/07/29 06:45:20;;;;;;;5.17;2.20;;;;;;;19.07;100.00;100971.97;5004597;28;20029;-75
2022/07/29 06:47:46;;;;;;;5.25;2.53;;;;;;;18.31;100.00;101027.38;5020364;28;20061;-76
2022/07/29 06:50:12;;;;;;;5.32;1.83;;;;;;;18.31;100.00;101178.72;4998714;28;20025;-75
2022/07/29 06:52:38;;;;;;;4.13;2.10;;;;;;;19.72;100.00;101267.16;5011275;28;20041;-76
2022/07/29 06:55:04;;;;;;;4.70;3.05;;;;;;;19.68;100.00;101070.88;5002025;28;20040;-75
2022/07/29 06:57:30;;;;;;;;;;;;;;;20.15;94.84;101047.09;5004377;28;20030;-76
2022/07/29 06:59:58;;;;;;;6.20;2.50;;;;;;;20.47;88.64;100964.91;5012969;28;19913;-76
2022/07/29 07:02:24;;;;;;;7.88;2.28;;;;;;;21.18;84.50;101018.66;5003512;28;20038;-75
2022/07/29 07:04:49;;;;;;;7.47;1.77;;;;;;;21.59;77.10;100894.09;5005294;28;20037;-75
2022/07/29 07:07:15;;;;;;;6.10;2.50;;;;;;;20.67;80.43;100838.06;5003796;28;20436;-76
2022/07/29 07:09:40;;;;;;;5.63;1.87;;;;;;;20.75;81.07;100885.78;5009726;28;20029;-76
2022/07/29 07:12:06;;;;;;;4.80;2.03;;;;;;;21.01;76.29;100824.91;5004980;28;20119;-76
2022/07/29 07:14:31;;;;;;;3.70;1.70;;;;;;;20.99;78.55;100925.53;5005563;28;20284;-76
2022/07/29 07:16:56;;;;;;;9.47;1.83;;;;;;;20.11;78.30;100749.63;5020247;28;20065;-76
2022/07/29 07:19:22;;;;;;;3.13;2.00;;;;;;;20.48;82.27;100978.22;5003398;28;20037;-75
2022/07/29 07:21:48;;;;;;;5.47;1.88;;;;;;;20.16;81.38;100902.41;5004830;28;20361;-76
2022/07/29 07:24:13;;;;;;;6.68;2.20;;;;;;;19.79;80.15;100823.72;5006010;28;20026;-76
2022/07/29 07:26:39;;;;;;;3.05;1.75;;;;;;;19.13;85.42;100873.69;5005437;28;20112;-76
2022/07/29 07:29:05;;;;;;;4.78;2.00;;;;;;;19.22;88.17;100973.56;5003483;28;20033;-75
2022/07/29 07:31:31;;;;;;;5.28;1.67;;;;;;;18.92;94.84;101061.50;5019891;28;20423;-74
2022/07/29 07:33:57;;;;;;;5.60;1.85;;;;;;;19.09;94.32;101080.00;5003311;28;20026;-76
2022/07/29 07:36:23;;;;;;;6.20;2.42;;;;;;;19.08;94.28;101071.06;5003707;28;20057;-75
2022/07/29 07:38:48;;;;;;;7.30;2.85;;;;;;;19.29;91.24;101058.28;5004998;28;20026;-76
2022/07/29 07:41:14;;;;;;;5.25;1.63;;;;;;;19.33;92.15;101100.97;5003083;28;20104;-75
2022/07/29 07:43:39;;;;;;;4.97;2.13;;;;;;;19.44;88.30;101036.41;5004902;28;20385;-75
2022/07/29 07:46:05;;;;;;;5.70;2.20;;;;;;;19.63;90.18;101115.91;5003213;28;20096;-76
2022/07/29 07:48:30;;;;;;;3.20;1.87;;;;;;;19.23;91.43;101073.50;5003575;28;20784;-75
2022/07/29 07:50:56;;;;;;;4.63;1.80;;;;;;;19.07;92.15;101063.97;5003877;28;20033;-75
2022/07/29 07:53:21;;;;;;;4.03;1.50;;;;;;;19.10;93.30;101084.34;5004733;28;20033;-76
2022/07/29 07:55:47;;;;;;;7.60;1.98;;;;;;;19.62;94.56;101212.56;5021690;28;20450;-76
2022/07/29 07:58:12;;;;;;;10.20;1.90;;;;;;;20.33;90.54;101232.59;4988757;28;20029;-76
2022/07/29 08:00:38;;;;;;;6.90;1.87;;;;;;;20.34;88.04;101174.59;5020950;28;20042;-76
2022/07/29 08:03:03;;;;;;;11.63;1.97;;;;;;;19.84;85.99;101014.56;5003856;28;20203;-76
2022/07/29 08:05:29;;;;;;;7.22;2.28;;;;;;;20.41;85.59;101121.16;5003449;28;20034;-75
2022/07/29 08:07:54;;;;;;;5.23;2.00;;;;;;;20.81;81.34;101096.47;5008224;28;20041;-76
2022/07/29 08:13:06;;;;;;;6.85;2.00;;;;;;;21.40;75.60;101061.69;5005072;28;20038;-76
2022/07/29 08:15:32;;;;;;;6.53;2.17;;;;;;;22.37;68.71;101003.72;5007769;28;20022;-75
2022/07/29 08:17:58;;;;;;;5.45;1.63;;;;;;;21.35;66.05;100712.03;5023012;28;20116;-76
2022/07/29 08:20:23;;;;;;;4.20;1.77;;;;;;;22.18;64.17;100786.25;5006168;28;20406;-76
2022/07/29 08:22:49;;;;;;;3.75;1.67;;;;;;;22.32;62.56;100759.66;5007754;28;20109;-75
2022/07/29 08:25:15;;;;;;;5.70;1.75;;;;;;;22.55;63.78;100905.69;5007718;28;20409;-76
2022/07/29 08:27:40;;;;;;;5.30;2.30;;;;;;;22.83;59.57;100728.00;5022811;28;20034;-75
2022/07/29 08:30:06;;;;;;;5.43;1.63;;;;;;;22.74;58.63;100684.03;5005603;28;20148;-75
2022/07/29 08:32:32;;;;;;;6.20;2.08;;;;;;;22.39;60.08;100705.94;5007804;28;20380;-76
2022/07/29 08:34:57;;;;;;;7.87;1.77;;;;;;;23.00;58.13;100710.91;5022802;28;20030;-76
2022/07/29 08:37:23;;;;;;;6.57;2.33;;;;;;;21.81;57.76;100465.84;5006277;28;20105;-76
2022/07/29 08:39:48;;;;;;;5.53;2.03;;;;;;;21.87;61.35;100727.66;5007240;28;20109;-77
2022/07/29 08:42:14;;;;;;;2.03;1.40;;;;;;;22.87;58.33;100745.47;4989911;28;20026;-77
2022/07/29 08:44:40;;;;;;;5.78;1.55;;;;;;;22.21;60.13;100766.75;5007279;28;20328;-76
2022/07/29 08:47:05;;;;;;;5.43;1.83;;;;;;;22.13;58.29;100609.41;5006119;28;20033;-75
2022/07/29 08:49:33;;;;;;;6.13;1.90;;;;;;;22.12;59.25;100684.72;5022217;28;20025;-75
2022/07/29 08:52:00;;;;;;;7.07;1.80;;;;;;;21.00;61.60;100585.25;5022994;28;20391;-76
2022/07/29 08:54:25;;;;;;;2.90;1.50;;;;;;;20.83;66.21;100795.91;5007721;28;20438;-75
2022/07/29 08:56:53;;;;;;;4.68;2.10;;;;;;;21.21;64.95;100828.19;5006978;28;20515;-75
2022/07/29 08:59:24;;;;;;;5.15;2.22;;;;;;;20.57;65.15;100681.28;5006660;28;20411;-77
2022/07/29 09:01:52;;;;;;;7.80;1.98;;;;;;;21.27;63.88;100801.97;5006491;28;20084;-75
2022/07/29 09:04:18;;;;;;;7.25;2.50;;;;;;;20.94;62.15;100654.03;5006690;28;20026;-76
2022/07/29 09:06:46;;;;;;;7.07;1.70;;;;;;;21.75;61.21;100786.59;5005097;28;20029;-76
2022/07/29 09:09:13;;;;;;;4.30;1.63;;;;;;;21.28;60.00;100619.00;5006790;28;20080;-76
2022/07/29 09:11:40;;;;;;;6.43;1.48;;;;;;;21.81;60.66;100791.09;5006615;28;20030;-76
2022/07/29 09:14:06;;;;;;;5.47;1.80;;;;;;;22.07;59.24;100747.13;5006862;28;20084;-76
2022/07/29 09:16:45;;;;;;;5.45;2.38;;;;;;;21.74;59.62;100707.00;5013352;28;20030;-76
2022/07/29 09:19:34;;;;;;;6.80;1.63;;;;;;;21.14;60.18;100594.00;5005401;28;20487;-75
2022/07/29 09:22:01;;;;;;;4.15;1.85;;;;;;;22.02;61.46;100885.66;5006455;28;20045;-75
2022/07/29 09:24:44;;;;;;;7.28;1.83;;;;;;;23.04;60.58;101022.44;5005267;28;20029;-76
2022/07/29 09:27:18;;;;;;;4.20;1.35;;;;;;;23.60;57.92;100953.59;5029568;23;20061;-76
2022/07/29 09:29:44;;;;;;;6.57;1.88;;;;;;;23.28;56.20;100751.69;5024535;28;20052;-77
2022/07/29 09:32:10;;;;;;;3.87;1.60;;;;;;;23.74;56.47;100886.00;5039861;28;20021;-76
2022/07/29 09:34:36;;;;;;;6.47;1.80;;;;;;;24.09;53.76;100766.81;5029626;28;20125;-76
2022/07/29 09:37:03;;;;;;;5.13;1.58;;;;;;;24.58;53.02;100808.72;5015762;28;20444;-76
2022/07/29 09:39:48;;;;;;;5.80;2.00;;;;;;;25.43;51.05;100786.41;5016988;28;20034;-77
2022/07/29 09:42:26;;;;;;;3.08;1.60;;;;;;;25.73;49.29;100692.00;5016983;28;20510;-76
2022/07/29 09:44:52;;;;;;;5.40;1.60;;;;;;;25.29;49.08;100613.88;5018568;28;20526;-76
2022/07/29 09:47:21;;;;;;;5.07;2.30;;;;;;;24.99;50.44;100682.72;5017633;28;20029;-77
2022/07/29 09:49:52;;;;;;;8.45;1.77;;;;;;;24.35;48.83;100403.25;5019545;28;20030;-77
2022/07/29 09:52:19;;;;;;;3.33;1.70;;;;;;;23.44;51.13;100428.59;5018328;28;20037;-76
2022/07/29 09:54:44;;;;;;;;;;;;;;;23.98;50.68;100553.19;5017051;28;20095;-77
2022/07/29 09:57:27;;;;;;;11.05;3.58;;;;;;;24.38;50.51;100661.91;5033591;28;20827;-76
2022/07/29 10:00:01;;;;;;;7.00;2.35;;;;;;;24.59;49.99;100632.13;5017385;28;20037;-77
2022/07/29 10:02:39;;;;;;;7.82;2.22;;;;;;;24.32;49.17;100501.97;5019878;28;20050;-77
2022/07/29 10:05:16;;;;;;;4.28;1.60;;;;;;;26.16;48.14;100843.28;5016277;28;20029;-77
2022/07/29 10:07:46;;;;;;;5.22;1.98;;;;;;;26.95;46.39;100829.44;5021031;28;20025;-77
2022/07/29 10:10:21;;;;;;;4.30;2.08;;;;;;;27.33;46.29;100823.78;5018428;28;20482;-77
2022/07/29 10:13:01;;;;;;;6.72;2.20;;;;;;;27.75;45.59;100820.75;5015968;28;20048;-77
2022/07/29 10:15:29;;;;;;;6.15;2.83;;;;;;;27.01;43.16;100333.59;5018699;28;20060;-77
2022/07/29 10:17:57;;;;;;;5.28;2.42;;;;;;;26.05;43.20;100142.16;5020803;28;20031;-76
2022/07/29 10:20:24;;;;;;;3.65;1.90;;;;;;;26.72;43.33;100365.22;4999606;28;20068;-76
2022/07/29 10:22:51;;;;;;;6.13;1.98;;;;;;;25.37;45.27;100265.53;5015846;28;20030;-77
2022/07/29 10:25:17;;;;;;;7.00;2.20;;;;;;;25.96;45.21;100448.19;5001163;28;20080;-77
2022/07/29 10:27:44;;;;;;;3.95;1.70;;;;;;;25.96;45.59;100500.16;5018605;28;20021;-77
2022/07/29 10:30:10;;;;;;;9.75;2.83;;;;;;;27.13;44.72;100734.09;5016465;28;20034;-77
2022/07/29 10:33:08;;;;;;;7.20;1.60;;;;;;;27.27;44.57;100781.00;5018781;28;20095;-77
2022/07/29 10:35:44;;;;;;;6.00;1.92;;;;;;;26.02;44.13;100320.50;5031902;28;20037;-77
2022/07/29 10:38:31;;;;;;;5.63;2.00;;;;;;;25.17;47.34;100547.63;5018140;28;20036;-77
2022/07/29 10:41:28;;;;;;;3.03;1.98;;;;;;;26.77;45.80;100804.44;5015358;28;20034;-77
2022/07/29 10:44:15;;;;;;;7.07;2.20;;;;;;;27.94;43.69;100817.47;5014718;28;20099;-77
2022/07/29 10:46:41;;;;;;;6.20;1.77;;;;;;;28.70;42.55;100843.06;4998602;28;20033;-75
2022/07/29 10:49:54;;;;;;;4.82;2.13;;;;;;;27.78;42.38;100569.78;5016007;28;20075;-77
2022/07/29 10:52:22;;;;;;;3.25;2.00;;;;;;;27.30;42.93;100529.16;5024644;28;20049;-77
2022/07/29 10:54:51;;;;;;;4.65;1.50;;;;;;;28.60;41.88;100734.91;5015408;28;20050;-77
2022/07/29 10:57:22;;;;;;;5.25;2.00;;;;;;;28.97;40.67;100688.78;5018584;28;20095;-77
2022/07/29 11:00:11;;;;;;;5.50;1.67;;;;;;;28.96;40.28;100623.94;5019617;28;20038;-77
2022/07/29 11:02:44;;;;;;;8.23;1.88;;;;;;;28.24;40.80;100431.47;5018457;28;20433;-77
2022/07/29 11:05:17;;;;;;;3.72;1.65;;;;;;;28.14;41.11;100510.06;5016562;28;20030;-75
2022/07/29 11:08:17;;;;;;;2.88;1.92;;;;;;;27.24;42.06;100371.31;5013897;28;20272;-76
2022/07/29 11:10:42;;;;;;;6.70;1.92;;;;;;;28.26;41.42;100621.41;5010447;28;20041;-77
2022/07/29 11:13:08;;;;;;;5.90;2.28;;;;;;;28.78;39.28;100479.88;5013663;28;20030;-76
2022/07/29 11:15:54;;;;;;;2.95;1.95;;;;;;;28.51;39.33;100409.03;5017312;28;20030;-76
2022/07/29 11:18:20;;;;;;;6.53;2.03;;;;;;;27.76;41.35;100402.75;5014434;28;20049;-76
2022/07/29 11:20:48;;;;;;;5.43;2.08;;;;;;;27.44;40.29;100244.28;5015908;28;20022;-76
2022/07/29 11:23:39;;;;;;;11.55;2.13;;;;;;;27.53;41.32;100368.66;5014813;28;20088;-76
2022/07/29 11:26:21;;;;;;;5.88;2.15;;;;;;;27.37;41.96;100389.06;5016122;28;20038;-76
2022/07/29 11:28:52;;;;;;;2.28;1.65;;;;;;;26.52;42.95;100281.19;5002655;28;20041;-76
2022/07/29 11:31:41;;;;;;;3.58;2.30;;;;;;;26.71;42.88;100381.91;5020183;28;20030;-76
2022/07/29 11:34:21;;;;;;;4.68;1.67;;;;;;;25.90;44.04;100246.94;5015998;28;20045;-76
2022/07/29 11:37:14;;;;;;;3.72;1.40;;;;;;;26.81;43.99;100561.81;5019084;28;20044;-76
2022/07/29 11:39:52;;;;;;;4.00;1.88;;;;;;;26.51;43.65;100429.31;5013083;28;20036;-76